sensor_id;sensor_type;location;lat;lon;timestamp;P1;durP1;ratioP1;P2;durP2;ratioP2
18251;SDS011;26917;52.328;20.878;2023-03-01T00:01:23;66.20;;;27.88;;
18251;SDS011;26917;52.328;20.878;2023-03-01T00:03:53;63.95;;;26.90;;
18251;SDS011;26917;52.328;20.878;2023-03-01T00:06:23;70.63;;;30.77;;
18251;SDS011;26917;52.328;20.878;2023-03-01T00:08:54;71.15;;;28.95;;
18251;SDS011;26917;52.328;20.878;2023-03-01T00:11:23;64.50;;;26.25;;
18251;SDS011;26917;52.328;20.878;2023-03-01T00:13:53;60.60;;;26.85;;
18251;SDS011;26917;52.328;20.878;2023-03-01T00:16:23;66.78;;;26.80;;
18251;SDS011;26917;52.328;20.878;2023-03-01T00:18:53;66.55;;;28.80;;
18251;SDS011;26917;52.328;20.878;2023-03-01T00:21:24;73.95;;;28.27;;
18251;SDS011;26917;52.328;20.878;2023-03-01T00:23:54;65.40;;;26.75;;
18251;SDS011;26917;52.328;20.878;2023-03-01T00:26:23;62.67;;;26.83;;
18251;SDS011;26917;52.328;20.878;2023-03-01T00:28:53;63.97;;;27.88;;
18251;SDS011;26917;52.328;20.878;2023-03-01T00:31:23;65.03;;;29.08;;
18251;SDS011;26917;52.328;20.878;2023-03-01T00:33:53;65.80;;;28.80;;
18251;SDS011;26917;52.328;20.878;2023-03-01T00:36:26;65.50;;;28.38;;
18251;SDS011;26917;52.328;20.878;2023-03-01T00:38:56;67.03;;;26.08;;
18251;SDS011;26917;52.328;20.878;2023-03-01T00:41:25;62.97;;;27.88;;
18251;SDS011;26917;52.328;20.878;2023-03-01T00:43:54;64.10;;;25.92;;
18251;SDS011;26917;52.328;20.878;2023-03-01T00:46:24;68.40;;;27.58;;
18251;SDS011;26917;52.328;20.878;2023-03-01T00:48:54;68.82;;;27.95;;
18251;SDS011;26917;52.328;20.878;2023-03-01T00:51:24;67.45;;;28.85;;
18251;SDS011;26917;52.328;20.878;2023-03-01T00:53:56;65.20;;;28.75;;
18251;SDS011;26917;52.328;20.878;2023-03-01T00:56:25;64.47;;;28.85;;
18251;SDS011;26917;52.328;20.878;2023-03-01T00:58:54;75.75;;;28.52;;
18251;SDS011;26917;52.328;20.878;2023-03-01T01:01:23;67.13;;;26.67;;
18251;SDS011;26917;52.328;20.878;2023-03-01T01:03:54;61.35;;;26.67;;
18251;SDS011;26917;52.328;20.878;2023-03-01T01:06:24;66.05;;;25.45;;
18251;SDS011;26917;52.328;20.878;2023-03-01T01:08:57;58.70;;;26.45;;
18251;SDS011;26917;52.328;20.878;2023-03-01T01:11:27;54.38;;;26.17;;
18251;SDS011;26917;52.328;20.878;2023-03-01T01:13:57;47.70;;;25.23;;
18251;SDS011;26917;52.328;20.878;2023-03-01T01:16:28;60.92;;;28.25;;
18251;SDS011;26917;52.328;20.878;2023-03-01T01:18:57;67.07;;;27.65;;
18251;SDS011;26917;52.328;20.878;2023-03-01T01:21:28;76.45;;;30.02;;
18251;SDS011;26917;52.328;20.878;2023-03-01T01:23:57;76.55;;;27.70;;
18251;SDS011;26917;52.328;20.878;2023-03-01T01:26:25;71.80;;;30.02;;
18251;SDS011;26917;52.328;20.878;2023-03-01T01:28:56;60.95;;;28.65;;
18251;SDS011;26917;52.328;20.878;2023-03-01T01:31:25;69.78;;;27.95;;
18251;SDS011;26917;52.328;20.878;2023-03-01T01:33:56;64.50;;;30.25;;
18251;SDS011;26917;52.328;20.878;2023-03-01T01:36:25;67.38;;;27.17;;
18251;SDS011;26917;52.328;20.878;2023-03-01T01:38:55;67.03;;;28.38;;
18251;SDS011;26917;52.328;20.878;2023-03-01T01:41:24;64.03;;;28.85;;
18251;SDS011;26917;52.328;20.878;2023-03-01T01:46:40;57.97;;;28.77;;
18251;SDS011;26917;52.328;20.878;2023-03-01T01:49:13;65.78;;;28.20;;
18251;SDS011;26917;52.328;20.878;2023-03-01T01:51:53;72.38;;;30.50;;
18251;SDS011;26917;52.328;20.878;2023-03-01T01:54:30;72.30;;;28.40;;
18251;SDS011;26917;52.328;20.878;2023-03-01T01:57:05;73.03;;;27.15;;
18251;SDS011;26917;52.328;20.878;2023-03-01T01:59:36;65.55;;;30.08;;
18251;SDS011;26917;52.328;20.878;2023-03-01T02:02:06;69.63;;;28.70;;
18251;SDS011;26917;52.328;20.878;2023-03-01T02:04:34;57.70;;;26.90;;
18251;SDS011;26917;52.328;20.878;2023-03-01T02:07:03;75.20;;;27.65;;
18251;SDS011;26917;52.328;20.878;2023-03-01T02:09:38;66.90;;;29.02;;
18251;SDS011;26917;52.328;20.878;2023-03-01T02:12:07;61.90;;;27.98;;
18251;SDS011;26917;52.328;20.878;2023-03-01T02:14:35;67.22;;;28.75;;
18251;SDS011;26917;52.328;20.878;2023-03-01T02:17:04;60.85;;;27.95;;
18251;SDS011;26917;52.328;20.878;2023-03-01T02:19:36;66.40;;;27.63;;
18251;SDS011;26917;52.328;20.878;2023-03-01T02:22:15;66.72;;;27.73;;
18251;SDS011;26917;52.328;20.878;2023-03-01T02:24:53;60.85;;;26.70;;
18251;SDS011;26917;52.328;20.878;2023-03-01T02:27:33;68.00;;;28.73;;
18251;SDS011;26917;52.328;20.878;2023-03-01T02:30:10;71.82;;;29.90;;
18251;SDS011;26917;52.328;20.878;2023-03-01T02:32:39;71.32;;;29.30;;
18251;SDS011;26917;52.328;20.878;2023-03-01T02:35:09;73.60;;;28.52;;
18251;SDS011;26917;52.328;20.878;2023-03-01T02:37:40;70.80;;;29.50;;
18251;SDS011;26917;52.328;20.878;2023-03-01T02:40:10;63.97;;;27.40;;
18251;SDS011;26917;52.328;20.878;2023-03-01T02:42:47;59.95;;;28.00;;
18251;SDS011;26917;52.328;20.878;2023-03-01T02:45:20;81.18;;;30.98;;
18251;SDS011;26917;52.328;20.878;2023-03-01T02:47:49;84.45;;;30.38;;
18251;SDS011;26917;52.328;20.878;2023-03-01T02:53:16;68.40;;;31.40;;
18251;SDS011;26917;52.328;20.878;2023-03-01T02:55:51;70.65;;;28.92;;
18251;SDS011;26917;52.328;20.878;2023-03-01T02:58:28;82.70;;;29.95;;
18251;SDS011;26917;52.328;20.878;2023-03-01T03:01:02;67.53;;;28.70;;
18251;SDS011;26917;52.328;20.878;2023-03-01T03:03:35;59.28;;;26.88;;
18251;SDS011;26917;52.328;20.878;2023-03-01T03:06:05;67.15;;;27.45;;
18251;SDS011;26917;52.328;20.878;2023-03-01T03:08:36;70.90;;;27.77;;
18251;SDS011;26917;52.328;20.878;2023-03-01T03:11:05;59.65;;;27.80;;
18251;SDS011;26917;52.328;20.878;2023-03-01T03:13:37;66.80;;;27.13;;
18251;SDS011;26917;52.328;20.878;2023-03-01T03:16:16;71.65;;;27.52;;
18251;SDS011;26917;52.328;20.878;2023-03-01T03:18:45;60.72;;;28.10;;
18251;SDS011;26917;52.328;20.878;2023-03-01T03:21:14;73.50;;;30.55;;
18251;SDS011;26917;52.328;20.878;2023-03-01T03:23:43;70.50;;;28.75;;
18251;SDS011;26917;52.328;20.878;2023-03-01T03:26:12;69.85;;;29.13;;
18251;SDS011;26917;52.328;20.878;2023-03-01T03:28:41;65.00;;;27.08;;
18251;SDS011;26917;52.328;20.878;2023-03-01T03:31:10;72.63;;;27.45;;
18251;SDS011;26917;52.328;20.878;2023-03-01T03:33:39;69.35;;;28.27;;
18251;SDS011;26917;52.328;20.878;2023-03-01T03:36:08;64.38;;;26.98;;
18251;SDS011;26917;52.328;20.878;2023-03-01T03:38:39;63.70;;;28.52;;
18251;SDS011;26917;52.328;20.878;2023-03-01T03:41:08;74.93;;;28.23;;
18251;SDS011;26917;52.328;20.878;2023-03-01T03:43:36;75.78;;;27.35;;
18251;SDS011;26917;52.328;20.878;2023-03-01T03:46:06;78.47;;;30.45;;
18251;SDS011;26917;52.328;20.878;2023-03-01T03:48:36;64.63;;;29.48;;
18251;SDS011;26917;52.328;20.878;2023-03-01T03:51:06;74.05;;;28.40;;
18251;SDS011;26917;52.328;20.878;2023-03-01T03:53:37;72.40;;;29.05;;
18251;SDS011;26917;52.328;20.878;2023-03-01T03:56:06;68.63;;;30.52;;
18251;SDS011;26917;52.328;20.878;2023-03-01T03:58:34;72.63;;;28.80;;
18251;SDS011;26917;52.328;20.878;2023-03-01T04:01:03;68.03;;;28.38;;
18251;SDS011;26917;52.328;20.878;2023-03-01T04:03:32;62.03;;;27.70;;
18251;SDS011;26917;52.328;20.878;2023-03-01T04:06:02;55.80;;;26.98;;
18251;SDS011;26917;52.328;20.878;2023-03-01T04:08:33;65.63;;;29.33;;
18251;SDS011;26917;52.328;20.878;2023-03-01T04:11:02;65.13;;;27.58;;
18251;SDS011;26917;52.328;20.878;2023-03-01T04:13:53;61.83;;;26.10;;
18251;SDS011;26917;52.328;20.878;2023-03-01T04:16:22;80.68;;;28.83;;
18251;SDS011;26917;52.328;20.878;2023-03-01T04:18:51;67.18;;;30.00;;
18251;SDS011;26917;52.328;20.878;2023-03-01T04:21:20;65.40;;;25.80;;
18251;SDS011;26917;52.328;20.878;2023-03-01T04:23:50;63.10;;;27.92;;
18251;SDS011;26917;52.328;20.878;2023-03-01T04:26:19;74.35;;;28.88;;
18251;SDS011;26917;52.328;20.878;2023-03-01T04:28:48;67.38;;;29.15;;
18251;SDS011;26917;52.328;20.878;2023-03-01T04:31:17;68.95;;;28.70;;
18251;SDS011;26917;52.328;20.878;2023-03-01T04:33:48;72.55;;;29.50;;
18251;SDS011;26917;52.328;20.878;2023-03-01T04:36:19;63.83;;;28.33;;
18251;SDS011;26917;52.328;20.878;2023-03-01T04:38:50;62.05;;;27.38;;
18251;SDS011;26917;52.328;20.878;2023-03-01T04:41:19;74.53;;;29.83;;
18251;SDS011;26917;52.328;20.878;2023-03-01T04:43:49;69.28;;;28.00;;
18251;SDS011;26917;52.328;20.878;2023-03-01T04:46:19;79.03;;;28.70;;
18251;SDS011;26917;52.328;20.878;2023-03-01T04:48:48;62.00;;;28.88;;
18251;SDS011;26917;52.328;20.878;2023-03-01T04:51:16;61.90;;;27.58;;
18251;SDS011;26917;52.328;20.878;2023-03-01T04:53:45;73.15;;;28.23;;
18251;SDS011;26917;52.328;20.878;2023-03-01T04:56:15;69.47;;;28.35;;
18251;SDS011;26917;52.328;20.878;2023-03-01T04:58:44;66.85;;;29.23;;
18251;SDS011;26917;52.328;20.878;2023-03-01T05:01:16;78.20;;;29.80;;
18251;SDS011;26917;52.328;20.878;2023-03-01T05:03:46;65.85;;;26.00;;
18251;SDS011;26917;52.328;20.878;2023-03-01T05:06:17;69.07;;;30.70;;
18251;SDS011;26917;52.328;20.878;2023-03-01T05:08:46;71.10;;;29.92;;
18251;SDS011;26917;52.328;20.878;2023-03-01T05:11:16;71.07;;;28.77;;
18251;SDS011;26917;52.328;20.878;2023-03-01T05:13:44;64.40;;;29.60;;
18251;SDS011;26917;52.328;20.878;2023-03-01T05:16:13;82.63;;;30.27;;
18251;SDS011;26917;52.328;20.878;2023-03-01T05:18:43;72.20;;;29.77;;
18251;SDS011;26917;52.328;20.878;2023-03-01T05:21:13;79.90;;;32.22;;
18251;SDS011;26917;52.328;20.878;2023-03-01T05:23:43;66.45;;;27.75;;
18251;SDS011;26917;52.328;20.878;2023-03-01T05:26:13;67.00;;;28.95;;
18251;SDS011;26917;52.328;20.878;2023-03-01T05:28:54;65.60;;;28.05;;
18251;SDS011;26917;52.328;20.878;2023-03-01T05:31:26;71.25;;;30.50;;
18251;SDS011;26917;52.328;20.878;2023-03-01T05:33:54;79.10;;;29.83;;
18251;SDS011;26917;52.328;20.878;2023-03-01T05:36:23;67.47;;;27.95;;
18251;SDS011;26917;52.328;20.878;2023-03-01T05:38:51;70.55;;;28.60;;
18251;SDS011;26917;52.328;20.878;2023-03-01T05:41:21;68.00;;;29.40;;
18251;SDS011;26917;52.328;20.878;2023-03-01T05:43:50;74.53;;;29.15;;
18251;SDS011;26917;52.328;20.878;2023-03-01T05:46:18;78.78;;;29.70;;
18251;SDS011;26917;52.328;20.878;2023-03-01T05:48:47;74.00;;;28.80;;
18251;SDS011;26917;52.328;20.878;2023-03-01T05:51:15;79.32;;;30.90;;
18251;SDS011;26917;52.328;20.878;2023-03-01T05:53:45;71.75;;;28.35;;
18251;SDS011;26917;52.328;20.878;2023-03-01T05:56:13;72.22;;;28.52;;
18251;SDS011;26917;52.328;20.878;2023-03-01T05:58:43;82.63;;;31.20;;
18251;SDS011;26917;52.328;20.878;2023-03-01T06:01:11;70.60;;;28.60;;
18251;SDS011;26917;52.328;20.878;2023-03-01T06:03:42;62.78;;;30.17;;
18251;SDS011;26917;52.328;20.878;2023-03-01T06:06:11;80.57;;;31.48;;
18251;SDS011;26917;52.328;20.878;2023-03-01T06:08:39;78.65;;;32.85;;
18251;SDS011;26917;52.328;20.878;2023-03-01T06:11:08;72.28;;;30.75;;
18251;SDS011;26917;52.328;20.878;2023-03-01T06:13:37;69.40;;;29.48;;
18251;SDS011;26917;52.328;20.878;2023-03-01T06:18:51;76.95;;;29.10;;
18251;SDS011;26917;52.328;20.878;2023-03-01T06:21:19;79.38;;;30.25;;
18251;SDS011;26917;52.328;20.878;2023-03-01T06:23:47;87.05;;;32.45;;
18251;SDS011;26917;52.328;20.878;2023-03-01T06:26:16;72.95;;;32.33;;
18251;SDS011;26917;52.328;20.878;2023-03-01T06:28:45;74.70;;;30.80;;
18251;SDS011;26917;52.328;20.878;2023-03-01T06:31:13;72.30;;;31.25;;
18251;SDS011;26917;52.328;20.878;2023-03-01T06:33:43;77.18;;;29.52;;
18251;SDS011;26917;52.328;20.878;2023-03-01T06:36:12;77.63;;;32.47;;
18251;SDS011;26917;52.328;20.878;2023-03-01T06:38:40;88.20;;;32.63;;
18251;SDS011;26917;52.328;20.878;2023-03-01T06:41:09;77.70;;;32.05;;
18251;SDS011;26917;52.328;20.878;2023-03-01T06:43:38;74.78;;;32.20;;
18251;SDS011;26917;52.328;20.878;2023-03-01T06:46:06;77.38;;;32.03;;
18251;SDS011;26917;52.328;20.878;2023-03-01T06:48:34;80.88;;;31.20;;
18251;SDS011;26917;52.328;20.878;2023-03-01T06:51:04;76.95;;;31.70;;
18251;SDS011;26917;52.328;20.878;2023-03-01T06:53:32;74.75;;;31.85;;
18251;SDS011;26917;52.328;20.878;2023-03-01T06:56:01;87.53;;;30.92;;
18251;SDS011;26917;52.328;20.878;2023-03-01T06:58:30;79.55;;;32.47;;
18251;SDS011;26917;52.328;20.878;2023-03-01T07:00:58;80.00;;;31.55;;
18251;SDS011;26917;52.328;20.878;2023-03-01T07:03:26;69.57;;;31.02;;
18251;SDS011;26917;52.328;20.878;2023-03-01T07:05:55;77.53;;;33.25;;
18251;SDS011;26917;52.328;20.878;2023-03-01T07:08:24;71.68;;;29.67;;
18251;SDS011;26917;52.328;20.878;2023-03-01T07:10:56;74.22;;;31.52;;
18251;SDS011;26917;52.328;20.878;2023-03-01T07:13:24;89.45;;;29.00;;
18251;SDS011;26917;52.328;20.878;2023-03-01T07:15:53;82.90;;;30.88;;
18251;SDS011;26917;52.328;20.878;2023-03-01T07:18:21;74.15;;;30.88;;
18251;SDS011;26917;52.328;20.878;2023-03-01T07:20:49;79.70;;;31.42;;
18251;SDS011;26917;52.328;20.878;2023-03-01T07:23:17;78.03;;;32.15;;
18251;SDS011;26917;52.328;20.878;2023-03-01T07:25:52;73.93;;;32.08;;
18251;SDS011;26917;52.328;20.878;2023-03-01T07:28:21;67.70;;;28.80;;
18251;SDS011;26917;52.328;20.878;2023-03-01T07:30:50;64.05;;;28.23;;
18251;SDS011;26917;52.328;20.878;2023-03-01T07:33:18;68.80;;;28.80;;
18251;SDS011;26917;52.328;20.878;2023-03-01T07:35:47;67.25;;;29.90;;
18251;SDS011;26917;52.328;20.878;2023-03-01T07:38:15;73.53;;;29.00;;
18251;SDS011;26917;52.328;20.878;2023-03-01T07:40:43;62.22;;;28.25;;
18251;SDS011;26917;52.328;20.878;2023-03-01T07:43:13;70.60;;;29.10;;
18251;SDS011;26917;52.328;20.878;2023-03-01T07:45:41;59.03;;;27.23;;
18251;SDS011;26917;52.328;20.878;2023-03-01T07:48:10;61.33;;;27.38;;
18251;SDS011;26917;52.328;20.878;2023-03-01T07:50:38;64.97;;;25.60;;
18251;SDS011;26917;52.328;20.878;2023-03-01T07:53:06;49.72;;;22.42;;
18251;SDS011;26917;52.328;20.878;2023-03-01T07:55:34;55.88;;;24.17;;
18251;SDS011;26917;52.328;20.878;2023-03-01T07:58:03;54.25;;;23.77;;
18251;SDS011;26917;52.328;20.878;2023-03-01T08:00:33;53.00;;;23.70;;
18251;SDS011;26917;52.328;20.878;2023-03-01T08:03:01;55.08;;;22.67;;
18251;SDS011;26917;52.328;20.878;2023-03-01T08:05:30;50.47;;;21.30;;
18251;SDS011;26917;52.328;20.878;2023-03-01T08:07:58;39.83;;;18.77;;
18251;SDS011;26917;52.328;20.878;2023-03-01T08:10:26;46.20;;;19.35;;
18251;SDS011;26917;52.328;20.878;2023-03-01T08:12:55;48.38;;;20.10;;
18251;SDS011;26917;52.328;20.878;2023-03-01T08:15:23;46.47;;;20.52;;
18251;SDS011;26917;52.328;20.878;2023-03-01T08:17:53;40.53;;;19.05;;
18251;SDS011;26917;52.328;20.878;2023-03-01T08:20:21;39.95;;;17.88;;
18251;SDS011;26917;52.328;20.878;2023-03-01T08:22:49;38.35;;;18.38;;
18251;SDS011;26917;52.328;20.878;2023-03-01T08:25:18;40.70;;;17.92;;
18251;SDS011;26917;52.328;20.878;2023-03-01T08:27:46;40.33;;;17.45;;
18251;SDS011;26917;52.328;20.878;2023-03-01T08:30:15;35.53;;;16.85;;
18251;SDS011;26917;52.328;20.878;2023-03-01T08:32:44;36.42;;;17.10;;
18251;SDS011;26917;52.328;20.878;2023-03-01T08:35:15;40.83;;;17.30;;
18251;SDS011;26917;52.328;20.878;2023-03-01T08:37:43;44.53;;;17.90;;
18251;SDS011;26917;52.328;20.878;2023-03-01T08:40:12;37.78;;;17.95;;
18251;SDS011;26917;52.328;20.878;2023-03-01T08:42:41;38.88;;;17.67;;
18251;SDS011;26917;52.328;20.878;2023-03-01T08:45:10;36.30;;;17.23;;
18251;SDS011;26917;52.328;20.878;2023-03-01T08:47:40;34.33;;;16.73;;
18251;SDS011;26917;52.328;20.878;2023-03-01T08:50:09;30.27;;;16.45;;
18251;SDS011;26917;52.328;20.878;2023-03-01T08:52:39;38.47;;;17.27;;
18251;SDS011;26917;52.328;20.878;2023-03-01T08:55:08;40.78;;;17.73;;
18251;SDS011;26917;52.328;20.878;2023-03-01T08:57:37;36.78;;;16.35;;
18251;SDS011;26917;52.328;20.878;2023-03-01T09:00:05;39.15;;;17.35;;
18251;SDS011;26917;52.328;20.878;2023-03-01T09:02:36;38.53;;;16.48;;
18251;SDS011;26917;52.328;20.878;2023-03-01T09:05:05;39.83;;;17.95;;
18251;SDS011;26917;52.328;20.878;2023-03-01T09:07:34;41.50;;;17.77;;
18251;SDS011;26917;52.328;20.878;2023-03-01T09:10:05;39.08;;;17.05;;
18251;SDS011;26917;52.328;20.878;2023-03-01T09:12:34;35.83;;;16.70;;
18251;SDS011;26917;52.328;20.878;2023-03-01T09:15:03;42.10;;;17.63;;
18251;SDS011;26917;52.328;20.878;2023-03-01T09:17:32;31.00;;;15.73;;
18251;SDS011;26917;52.328;20.878;2023-03-01T09:20:00;33.13;;;16.67;;
18251;SDS011;26917;52.328;20.878;2023-03-01T09:22:32;42.25;;;16.45;;
18251;SDS011;26917;52.328;20.878;2023-03-01T09:25:02;33.13;;;16.45;;
18251;SDS011;26917;52.328;20.878;2023-03-01T09:27:32;34.30;;;16.27;;
18251;SDS011;26917;52.328;20.878;2023-03-01T09:30:01;36.22;;;17.63;;
18251;SDS011;26917;52.328;20.878;2023-03-01T09:32:30;36.13;;;15.70;;
18251;SDS011;26917;52.328;20.878;2023-03-01T09:34:59;37.35;;;18.02;;
18251;SDS011;26917;52.328;20.878;2023-03-01T09:37:31;31.60;;;15.55;;
18251;SDS011;26917;52.328;20.878;2023-03-01T09:40:01;39.03;;;16.55;;
18251;SDS011;26917;52.328;20.878;2023-03-01T09:42:32;28.90;;;15.40;;
18251;SDS011;26917;52.328;20.878;2023-03-01T09:45:05;30.60;;;15.07;;
18251;SDS011;26917;52.328;20.878;2023-03-01T09:47:38;34.72;;;16.80;;
18251;SDS011;26917;52.328;20.878;2023-03-01T09:50:09;34.85;;;16.40;;
18251;SDS011;26917;52.328;20.878;2023-03-01T09:52:41;31.25;;;16.35;;
18251;SDS011;26917;52.328;20.878;2023-03-01T09:55:15;34.08;;;17.10;;
18251;SDS011;26917;52.328;20.878;2023-03-01T10:00:41;29.35;;;15.95;;
18251;SDS011;26917;52.328;20.878;2023-03-01T10:03:12;32.40;;;14.35;;
18251;SDS011;26917;52.328;20.878;2023-03-01T10:05:47;32.70;;;13.98;;
18251;SDS011;26917;52.328;20.878;2023-03-01T10:08:28;30.80;;;14.15;;
18251;SDS011;26917;52.328;20.878;2023-03-01T10:11:03;35.53;;;15.30;;
18251;SDS011;26917;52.328;20.878;2023-03-01T10:13:37;29.30;;;14.60;;
18251;SDS011;26917;52.328;20.878;2023-03-01T10:16:16;35.38;;;15.20;;
18251;SDS011;26917;52.328;20.878;2023-03-01T10:18:51;32.00;;;15.43;;
18251;SDS011;26917;52.328;20.878;2023-03-01T10:21:23;28.38;;;12.80;;
18251;SDS011;26917;52.328;20.878;2023-03-01T10:23:54;29.30;;;14.10;;
18251;SDS011;26917;52.328;20.878;2023-03-01T10:26:31;26.60;;;13.20;;
18251;SDS011;26917;52.328;20.878;2023-03-01T10:29:23;27.35;;;13.52;;
18251;SDS011;26917;52.328;20.878;2023-03-01T10:31:54;23.65;;;12.82;;
18251;SDS011;26917;52.328;20.878;2023-03-01T10:34:27;27.50;;;13.15;;
18251;SDS011;26917;52.328;20.878;2023-03-01T10:37:01;19.55;;;11.80;;
18251;SDS011;26917;52.328;20.878;2023-03-01T10:39:37;26.35;;;12.45;;
18251;SDS011;26917;52.328;20.878;2023-03-01T10:42:25;20.92;;;12.18;;
18251;SDS011;26917;52.328;20.878;2023-03-01T10:44:57;23.27;;;12.68;;
18251;SDS011;26917;52.328;20.878;2023-03-01T10:47:41;27.02;;;12.40;;
18251;SDS011;26917;52.328;20.878;2023-03-01T10:50:17;20.58;;;11.80;;
18251;SDS011;26917;52.328;20.878;2023-03-01T10:52:58;27.05;;;12.85;;
18251;SDS011;26917;52.328;20.878;2023-03-01T10:55:29;24.67;;;12.68;;
18251;SDS011;26917;52.328;20.878;2023-03-01T10:58:17;21.45;;;11.38;;
18251;SDS011;26917;52.328;20.878;2023-03-01T11:00:49;28.75;;;12.25;;
18251;SDS011;26917;52.328;20.878;2023-03-01T11:03:21;22.38;;;11.23;;
18251;SDS011;26917;52.328;20.878;2023-03-01T11:05:52;28.90;;;12.82;;
18251;SDS011;26917;52.328;20.878;2023-03-01T11:08:29;26.08;;;11.63;;
18251;SDS011;26917;52.328;20.878;2023-03-01T11:11:14;23.02;;;12.07;;
18251;SDS011;26917;52.328;20.878;2023-03-01T11:13:49;19.10;;;11.55;;
18251;SDS011;26917;52.328;20.878;2023-03-01T11:16:28;29.67;;;13.38;;
18251;SDS011;26917;52.328;20.878;2023-03-01T11:19:15;26.15;;;11.75;;
18251;SDS011;26917;52.328;20.878;2023-03-01T11:24:33;24.13;;;11.98;;
18251;SDS011;26917;52.328;20.878;2023-03-01T11:27:13;21.42;;;12.48;;
18251;SDS011;26917;52.328;20.878;2023-03-01T11:29:46;25.55;;;12.50;;
18251;SDS011;26917;52.328;20.878;2023-03-01T11:32:22;26.85;;;12.63;;
18251;SDS011;26917;52.328;20.878;2023-03-01T11:34:54;26.63;;;12.70;;
18251;SDS011;26917;52.328;20.878;2023-03-01T11:37:30;30.38;;;13.88;;
18251;SDS011;26917;52.328;20.878;2023-03-01T11:40:05;23.33;;;13.25;;
18251;SDS011;26917;52.328;20.878;2023-03-01T11:42:43;28.08;;;15.52;;
18251;SDS011;26917;52.328;20.878;2023-03-01T11:45:23;26.75;;;14.30;;
18251;SDS011;26917;52.328;20.878;2023-03-01T11:48:09;23.88;;;14.93;;
18251;SDS011;26917;52.328;20.878;2023-03-01T11:51:00;27.60;;;14.20;;
18251;SDS011;26917;52.328;20.878;2023-03-01T11:53:42;27.50;;;13.38;;
18251;SDS011;26917;52.328;20.878;2023-03-01T11:56:34;26.33;;;14.05;;
18251;SDS011;26917;52.328;20.878;2023-03-01T11:59:13;25.95;;;14.50;;
18251;SDS011;26917;52.328;20.878;2023-03-01T12:01:59;32.92;;;15.38;;
18251;SDS011;26917;52.328;20.878;2023-03-01T12:04:52;27.35;;;13.93;;
18251;SDS011;26917;52.328;20.878;2023-03-01T12:07:51;27.88;;;13.35;;
18251;SDS011;26917;52.328;20.878;2023-03-01T12:10:26;30.33;;;15.48;;
18251;SDS011;26917;52.328;20.878;2023-03-01T12:15:56;32.45;;;15.07;;
18251;SDS011;26917;52.328;20.878;2023-03-01T12:18:41;25.73;;;14.27;;
18251;SDS011;26917;52.328;20.878;2023-03-01T12:21:34;29.65;;;14.65;;
18251;SDS011;26917;52.328;20.878;2023-03-01T12:27:33;36.17;;;18.95;;
18251;SDS011;26917;52.328;20.878;2023-03-01T12:30:21;36.47;;;17.98;;
18251;SDS011;26917;52.328;20.878;2023-03-01T12:33:01;34.88;;;16.77;;
18251;SDS011;26917;52.328;20.878;2023-03-01T12:35:47;36.03;;;17.15;;
18251;SDS011;26917;52.328;20.878;2023-03-01T12:38:47;37.40;;;16.80;;
18251;SDS011;26917;52.328;20.878;2023-03-01T12:41:24;32.00;;;16.38;;
18251;SDS011;26917;52.328;20.878;2023-03-01T12:44:11;34.03;;;17.73;;
18251;SDS011;26917;52.328;20.878;2023-03-01T12:47:01;31.92;;;16.20;;
18251;SDS011;26917;52.328;20.878;2023-03-01T12:49:39;28.88;;;15.85;;
18251;SDS011;26917;52.328;20.878;2023-03-01T12:52:11;30.88;;;15.57;;
18251;SDS011;26917;52.328;20.878;2023-03-01T12:54:45;32.15;;;15.38;;
18251;SDS011;26917;52.328;20.878;2023-03-01T12:57:15;25.55;;;14.05;;
18251;SDS011;26917;52.328;20.878;2023-03-01T12:59:51;27.23;;;15.13;;
18251;SDS011;26917;52.328;20.878;2023-03-01T13:02:35;27.23;;;14.63;;
18251;SDS011;26917;52.328;20.878;2023-03-01T13:05:17;34.60;;;14.43;;
18251;SDS011;26917;52.328;20.878;2023-03-01T13:07:55;34.47;;;15.75;;
18251;SDS011;26917;52.328;20.878;2023-03-01T13:10:31;28.85;;;14.35;;
18251;SDS011;26917;52.328;20.878;2023-03-01T13:13:11;30.42;;;14.88;;
18251;SDS011;26917;52.328;20.878;2023-03-01T13:15:41;27.13;;;14.18;;
18251;SDS011;26917;52.328;20.878;2023-03-01T13:20:58;28.42;;;15.27;;
18251;SDS011;26917;52.328;20.878;2023-03-01T13:23:33;30.52;;;16.55;;
18251;SDS011;26917;52.328;20.878;2023-03-01T13:26:09;24.08;;;14.10;;
18251;SDS011;26917;52.328;20.878;2023-03-01T13:34:40;31.55;;;14.88;;
18251;SDS011;26917;52.328;20.878;2023-03-01T13:37:20;27.45;;;14.75;;
18251;SDS011;26917;52.328;20.878;2023-03-01T13:39:56;22.90;;;13.30;;
18251;SDS011;26917;52.328;20.878;2023-03-01T13:42:39;28.90;;;15.57;;
18251;SDS011;26917;52.328;20.878;2023-03-01T13:45:32;35.08;;;16.88;;
18251;SDS011;26917;52.328;20.878;2023-03-01T13:48:08;27.45;;;15.10;;
18251;SDS011;26917;52.328;20.878;2023-03-01T13:50:43;29.52;;;15.45;;
18251;SDS011;26917;52.328;20.878;2023-03-01T13:53:16;32.08;;;17.42;;
18251;SDS011;26917;52.328;20.878;2023-03-01T13:55:47;40.83;;;16.67;;
18251;SDS011;26917;52.328;20.878;2023-03-01T13:58:21;32.72;;;16.25;;
18251;SDS011;26917;52.328;20.878;2023-03-01T14:00:55;32.72;;;16.00;;
18251;SDS011;26917;52.328;20.878;2023-03-01T14:03:25;30.38;;;15.82;;
18251;SDS011;26917;52.328;20.878;2023-03-01T14:05:59;31.20;;;17.25;;
18251;SDS011;26917;52.328;20.878;2023-03-01T14:08:40;30.92;;;16.33;;
18251;SDS011;26917;52.328;20.878;2023-03-01T14:11:19;28.02;;;16.00;;
18251;SDS011;26917;52.328;20.878;2023-03-01T14:14:22;32.05;;;16.10;;
18251;SDS011;26917;52.328;20.878;2023-03-01T14:17:15;32.83;;;17.52;;
18251;SDS011;26917;52.328;20.878;2023-03-01T14:20:08;40.08;;;17.95;;
18251;SDS011;26917;52.328;20.878;2023-03-01T14:22:40;32.53;;;17.63;;
18251;SDS011;26917;52.328;20.878;2023-03-01T14:25:20;31.15;;;17.23;;
18251;SDS011;26917;52.328;20.878;2023-03-01T14:27:51;31.77;;;17.45;;
18251;SDS011;26917;52.328;20.878;2023-03-01T14:30:26;32.10;;;18.20;;
18251;SDS011;26917;52.328;20.878;2023-03-01T14:32:59;32.72;;;16.50;;
18251;SDS011;26917;52.328;20.878;2023-03-01T14:35:30;32.90;;;17.25;;
18251;SDS011;26917;52.328;20.878;2023-03-01T14:38:00;28.38;;;16.75;;
18251;SDS011;26917;52.328;20.878;2023-03-01T14:40:29;32.88;;;18.55;;
18251;SDS011;26917;52.328;20.878;2023-03-01T14:43:00;39.65;;;19.17;;
18251;SDS011;26917;52.328;20.878;2023-03-01T14:45:37;32.25;;;18.38;;
18251;SDS011;26917;52.328;20.878;2023-03-01T14:48:05;33.60;;;18.52;;
18251;SDS011;26917;52.328;20.878;2023-03-01T14:50:35;35.85;;;17.30;;
18251;SDS011;26917;52.328;20.878;2023-03-01T14:53:12;33.80;;;17.10;;
18251;SDS011;26917;52.328;20.878;2023-03-01T14:55:46;34.33;;;18.27;;
18251;SDS011;26917;52.328;20.878;2023-03-01T14:58:19;31.65;;;17.42;;
18251;SDS011;26917;52.328;20.878;2023-03-01T15:00:52;28.30;;;16.75;;
18251;SDS011;26917;52.328;20.878;2023-03-01T15:03:26;26.17;;;16.00;;
18251;SDS011;26917;52.328;20.878;2023-03-01T15:05:59;30.88;;;16.55;;
18251;SDS011;26917;52.328;20.878;2023-03-01T15:08:29;36.72;;;16.98;;